createdAt,value
2017-11-23T00:00:48.840Z,1001.45
2017-11-23T00:01:57.670Z,1001.48
2017-11-23T00:03:06.654Z,1001.42
2017-11-23T00:04:15.479Z,1001.44
2017-11-23T00:05:24.308Z,1001.32
2017-11-23T00:06:33.140Z,1001.35
2017-11-23T00:07:41.973Z,1001.4
2017-11-23T00:08:50.996Z,1001.48
2017-11-23T00:09:59.826Z,1001.47
2017-11-23T00:11:08.657Z,1001.46
2017-11-23T00:12:17.482Z,1001.49
2017-11-23T00:13:26.310Z,1001.44
2017-11-23T00:14:35.293Z,1001.52
2017-11-23T00:15:44.117Z,1001.44
2017-11-23T00:16:52.947Z,1001.56
2017-11-23T00:18:01.771Z,1001.44
2017-11-23T00:19:10.889Z,1001.53
2017-11-23T00:20:19.720Z,1001.42
2017-11-23T00:21:28.550Z,1001.46
2017-11-23T00:22:37.376Z,1001.46
2017-11-23T00:23:46.255Z,1001.46
2017-11-23T00:24:55.085Z,1001.42
2017-11-23T00:26:04.065Z,1001.42
2017-11-23T00:27:12.894Z,1001.48
2017-11-23T00:28:21.723Z,1001.47
2017-11-23T00:29:30.553Z,1001.53
2017-11-23T00:30:39.383Z,1001.51
2017-11-23T00:31:48.365Z,1001.5
2017-11-23T00:32:57.194Z,1001.48
2017-11-23T00:34:06.025Z,1001.51
2017-11-23T00:35:14.857Z,1001.46
2017-11-23T00:36:23.689Z,1001.51
2017-11-23T00:37:32.518Z,1001.53
2017-11-23T00:38:41.347Z,1001.46
2017-11-23T00:39:50.177Z,1001.5
2017-11-23T00:40:59.008Z,1001.49
2017-11-23T00:42:07.847Z,1001.56
2017-11-23T00:43:16.672Z,1001.57
2017-11-23T00:44:25.501Z,1001.51
2017-11-23T00:45:34.605Z,1001.48
2017-11-23T00:46:43.716Z,1001.42
2017-11-23T00:47:52.544Z,1001.44
2017-11-23T00:49:01.377Z,1001.51
2017-11-23T00:50:10.201Z,1001.49
2017-11-23T00:51:19.032Z,1001.46
2017-11-23T00:52:28.146Z,1001.6
2017-11-23T00:53:36.976Z,1001.53
2017-11-23T00:54:45.906Z,1001.55
2017-11-23T00:55:54.735Z,1001.55
2017-11-23T00:57:03.564Z,1001.58
2017-11-23T00:58:12.394Z,1001.54
2017-11-23T00:59:21.224Z,1001.53
2017-11-23T01:00:30.050Z,1001.57
2017-11-23T01:01:38.878Z,1001.45
2017-11-23T01:02:47.709Z,1001.44
2017-11-23T01:03:56.541Z,1001.43
2017-11-23T01:05:05.371Z,1001.47
2017-11-23T01:06:14.702Z,1001.43
2017-11-23T01:07:23.529Z,1001.47
2017-11-23T01:08:32.360Z,1001.44
2017-11-23T01:09:41.197Z,1001.49
2017-11-23T01:10:50.301Z,1001.43
2017-11-23T01:11:59.129Z,1001.33
2017-11-23T01:13:07.959Z,1001.38
2017-11-23T01:14:16.789Z,1001.31
2017-11-23T01:15:25.615Z,1001.45
2017-11-23T01:16:34.446Z,1001.44
2017-11-23T01:17:43.475Z,1001.4
2017-11-23T01:18:52.302Z,1001.34
2017-11-23T01:20:01.129Z,1001.32
2017-11-23T01:21:09.959Z,1001.28
2017-11-23T01:22:18.788Z,1001.32
2017-11-23T01:23:27.995Z,1001.36
2017-11-23T01:24:36.823Z,1001.38
2017-11-23T01:25:45.942Z,1001.3
2017-11-23T01:26:54.771Z,1001.24
2017-11-23T01:28:03.603Z,1001.26
2017-11-23T01:31:20.770Z,1001.23
2017-11-23T01:32:29.598Z,1001.2
2017-11-23T01:33:38.428Z,1001.2
2017-11-23T01:34:47.258Z,1001.26
2017-11-23T01:35:56.084Z,1001.22
2017-11-23T01:37:04.914Z,1001.21
2017-11-23T01:38:14.021Z,1001.15
2017-11-23T01:39:22.851Z,1001.06
2017-11-23T01:40:31.730Z,1001.11
2017-11-23T01:41:40.566Z,1001.11
2017-11-23T01:42:49.390Z,1001.08
2017-11-23T01:43:58.223Z,1001.08
2017-11-23T01:45:07.055Z,1001.04
2017-11-23T01:46:16.283Z,1001.04
2017-11-23T01:47:25.111Z,1001.02
2017-11-23T01:48:33.940Z,1001
2017-11-23T01:49:42.769Z,1001
2017-11-23T01:50:51.594Z,1000.93
2017-11-23T01:52:00.574Z,1000.99
2017-11-23T01:53:09.402Z,1000.98
2017-11-23T01:54:18.511Z,1001.02
2017-11-23T01:55:27.618Z,1001.02
2017-11-23T01:56:36.448Z,1000.99
2017-11-23T01:57:45.576Z,1001.02
2017-11-23T01:58:54.404Z,1000.98
2017-11-23T02:00:03.231Z,1000.94
2017-11-23T02:01:12.060Z,1000.99
2017-11-23T02:02:20.889Z,1000.93
2017-11-23T02:03:30.019Z,1000.98
2017-11-23T02:04:38.849Z,1000.98
2017-11-23T02:05:47.681Z,1000.98
2017-11-23T02:06:56.513Z,1000.97
2017-11-23T02:08:05.634Z,1001
2017-11-23T02:09:14.845Z,1000.97
2017-11-23T02:10:23.671Z,1000.94
2017-11-23T02:11:32.503Z,1000.98
2017-11-23T02:12:41.330Z,1000.99
2017-11-23T02:13:50.158Z,1001.02
2017-11-23T02:14:59.134Z,1001.01
2017-11-23T02:16:07.968Z,1001.07
2017-11-23T02:17:16.800Z,1001.07
2017-11-23T02:18:25.630Z,1001.04
2017-11-23T02:19:34.456Z,1001.04
2017-11-23T02:20:43.287Z,1001.02
2017-11-23T02:21:52.114Z,1000.97
2017-11-23T02:23:01.237Z,1000.99
2017-11-23T02:24:10.067Z,1000.97
2017-11-23T02:25:18.893Z,1001.01
2017-11-23T02:26:27.924Z,1001.06
2017-11-23T02:27:36.756Z,1001.04
2017-11-23T02:28:45.584Z,1001.06
2017-11-23T02:29:54.619Z,1001.07
2017-11-23T02:31:03.449Z,1001.1
2017-11-23T02:32:12.988Z,1000.98
2017-11-23T02:33:21.816Z,1000.97
2017-11-23T02:34:30.648Z,1001.02
2017-11-23T02:35:39.477Z,1001.01
2017-11-23T02:36:48.339Z,1001.01
2017-11-23T02:37:57.187Z,1001.01
2017-11-23T02:39:06.585Z,1000.95
2017-11-23T02:40:15.694Z,1000.94
2017-11-23T02:41:24.526Z,1000.92
2017-11-23T02:42:33.634Z,1001.01
2017-11-23T02:43:42.515Z,1000.96
2017-11-23T02:44:51.346Z,1000.92
2017-11-23T02:46:00.175Z,1000.9
2017-11-23T02:47:09.007Z,1000.89
2017-11-23T02:48:17.836Z,1000.87
2017-11-23T02:49:26.665Z,1000.86
2017-11-23T02:50:35.496Z,1000.85
2017-11-23T02:51:44.326Z,1000.82
2017-11-23T02:52:53.155Z,1000.84
2017-11-23T02:54:01.984Z,1000.81
2017-11-23T02:55:11.063Z,1000.8
2017-11-23T02:56:19.893Z,1000.78
2017-11-23T02:57:28.722Z,1000.78
2017-11-23T02:58:37.553Z,1000.75
2017-11-23T02:59:46.382Z,1000.76
2017-11-23T03:00:55.262Z,1000.71
2017-11-23T03:02:04.144Z,1000.69
2017-11-23T03:03:13.250Z,1000.69
2017-11-23T03:04:22.082Z,1000.67
2017-11-23T03:05:30.910Z,1000.67
2017-11-23T03:06:39.739Z,1000.62
2017-11-23T03:07:48.566Z,1000.58
2017-11-23T03:08:57.394Z,1000.56
2017-11-23T03:10:06.222Z,1000.58
2017-11-23T03:12:56.322Z,1000.51
2017-11-23T03:14:05.147Z,1000.51
2017-11-23T03:15:13.977Z,1000.5
2017-11-23T03:16:22.802Z,1000.39
2017-11-23T03:17:31.934Z,1000.46
2017-11-23T03:18:40.765Z,1000.46
2017-11-23T03:19:49.594Z,1000.41
2017-11-23T03:20:58.433Z,1000.44
2017-11-23T03:22:07.252Z,1000.41
2017-11-23T03:23:16.182Z,1000.43
2017-11-23T03:24:25.018Z,1000.42
2017-11-23T03:25:33.853Z,1000.34
2017-11-23T03:26:42.677Z,1000.32
2017-11-23T03:27:51.507Z,1000.28
2017-11-23T03:29:00.335Z,1000.25
2017-11-23T03:30:09.453Z,1000.3
2017-11-23T03:31:18.563Z,1000.31
2017-11-23T03:32:27.390Z,1000.3
2017-11-23T03:33:36.221Z,1000.24
2017-11-23T03:34:45.452Z,1000.24
2017-11-23T03:35:54.288Z,1000.23
2017-11-23T03:37:03.108Z,1000.23
2017-11-23T03:38:11.936Z,1000.16
2017-11-23T03:39:20.767Z,1000.17
2017-11-23T03:40:29.597Z,1000.14
2017-11-23T03:41:38.424Z,1000.16
2017-11-23T03:42:47.253Z,1000.16
2017-11-23T03:43:56.082Z,1000.09
2017-11-23T03:45:05.192Z,1000.09
2017-11-23T03:46:14.321Z,1000
2017-11-23T03:47:23.149Z,999.98
2017-11-23T03:48:32.255Z,1000.01
2017-11-23T03:49:41.088Z,999.97
2017-11-23T03:50:49.913Z,999.94
2017-11-23T03:51:58.892Z,999.93
2017-11-23T03:53:07.720Z,999.93
2017-11-23T03:54:16.548Z,999.9
2017-11-23T03:55:25.658Z,999.88
2017-11-23T03:56:34.487Z,999.92
2017-11-23T03:57:43.474Z,999.9
2017-11-23T03:58:52.303Z,999.84
2017-11-23T04:00:01.124Z,999.91
2017-11-23T04:01:10.230Z,999.91
2017-11-23T04:02:19.057Z,999.87
2017-11-23T04:03:27.935Z,999.87
2017-11-23T04:04:36.769Z,999.88
2017-11-23T04:05:45.594Z,999.85
2017-11-23T04:06:54.443Z,999.86
2017-11-23T04:08:03.251Z,999.85
2017-11-23T04:09:12.379Z,999.8
2017-11-23T04:10:21.207Z,999.8
2017-11-23T04:11:30.036Z,999.76
2017-11-23T04:12:38.864Z,999.78
2017-11-23T04:13:47.690Z,999.76
2017-11-23T04:14:56.679Z,999.76
2017-11-23T04:16:05.506Z,999.69
2017-11-23T04:17:14.335Z,999.74
2017-11-23T04:18:23.443Z,999.72
2017-11-23T04:19:32.283Z,999.7
2017-11-23T04:20:41.154Z,999.62
2017-11-23T04:21:49.982Z,999.65
2017-11-23T04:22:59.087Z,999.65
2017-11-23T04:24:07.921Z,999.67
2017-11-23T04:25:16.746Z,999.65
2017-11-23T04:26:25.574Z,999.62
2017-11-23T04:27:34.402Z,999.62
2017-11-23T04:28:43.233Z,999.6
2017-11-23T04:29:52.062Z,999.59
2017-11-23T04:31:01.344Z,999.61
2017-11-23T04:32:10.317Z,999.55
2017-11-23T04:33:19.145Z,999.57
2017-11-23T04:34:27.976Z,999.5
2017-11-23T04:35:36.807Z,999.48
2017-11-23T04:36:45.924Z,999.49
2017-11-23T04:37:55.079Z,999.48
2017-11-23T04:39:03.909Z,999.45
2017-11-23T04:40:12.738Z,999.48
2017-11-23T04:41:21.564Z,999.43
2017-11-23T04:42:30.681Z,999.47
2017-11-23T04:43:39.503Z,999.48
2017-11-23T04:44:48.332Z,999.48
2017-11-23T04:45:57.162Z,999.47
2017-11-23T04:47:05.990Z,999.47
2017-11-23T04:48:14.820Z,999.46
2017-11-23T04:49:23.754Z,999.41
2017-11-23T04:50:32.858Z,999.37
2017-11-23T04:51:41.699Z,999.38
2017-11-23T04:52:50.520Z,999.41
2017-11-23T04:53:59.348Z,999.42
2017-11-23T04:55:08.226Z,999.45
2017-11-23T04:56:17.070Z,999.44
2017-11-23T04:57:25.882Z,999.48
2017-11-23T04:58:34.709Z,999.51
2017-11-23T04:59:43.539Z,999.48
2017-11-23T05:00:52.466Z,999.48
2017-11-23T05:02:01.292Z,999.54
2017-11-23T05:03:10.122Z,999.51
2017-11-23T05:04:18.950Z,999.58
2017-11-23T05:05:27.777Z,999.59
2017-11-23T05:06:36.609Z,999.64
2017-11-23T05:07:45.722Z,999.65
2017-11-23T05:08:54.555Z,999.7
2017-11-23T05:10:03.378Z,999.7
2017-11-23T05:11:12.213Z,999.71
2017-11-23T05:12:21.194Z,999.61
2017-11-23T05:13:30.029Z,999.71
2017-11-23T05:14:38.851Z,999.66
2017-11-23T05:15:47.954Z,999.67
2017-11-23T05:16:56.789Z,999.61
2017-11-23T05:18:05.710Z,999.59
2017-11-23T05:19:14.540Z,999.57
2017-11-23T05:20:23.367Z,999.5
2017-11-23T05:21:32.196Z,999.49
2017-11-23T05:22:41.024Z,999.5
2017-11-23T05:23:50.004Z,999.46
2017-11-23T05:24:58.832Z,999.51
2017-11-23T05:26:07.661Z,999.51
2017-11-23T05:27:16.491Z,999.55
2017-11-23T05:28:25.331Z,999.57
2017-11-23T05:29:34.248Z,999.58
2017-11-23T05:30:43.076Z,999.63
2017-11-23T05:31:51.909Z,999.65
2017-11-23T05:33:00.737Z,999.7
2017-11-23T05:34:09.566Z,999.69
2017-11-23T05:35:18.546Z,999.71
2017-11-23T05:36:27.374Z,999.74
2017-11-23T05:37:36.205Z,999.78
2017-11-23T05:38:45.032Z,999.83
2017-11-23T05:39:53.861Z,999.84
2017-11-23T05:41:02.757Z,999.79
2017-11-23T05:42:11.577Z,999.8
2017-11-23T05:43:20.399Z,999.86
2017-11-23T05:44:29.228Z,999.83
2017-11-23T05:45:38.056Z,999.81
2017-11-23T05:46:47.045Z,999.83
2017-11-23T05:47:55.872Z,999.78
2017-11-23T05:49:04.703Z,999.82
2017-11-23T05:50:13.534Z,999.89
2017-11-23T05:51:22.364Z,999.91
2017-11-23T05:52:31.474Z,999.9
2017-11-23T05:53:40.301Z,999.93
2017-11-23T05:54:49.131Z,999.87
2017-11-23T05:55:57.959Z,999.84
2017-11-23T05:57:06.786Z,999.86
2017-11-23T05:58:15.916Z,999.85
2017-11-23T05:59:24.747Z,999.77
2017-11-23T06:00:33.579Z,999.8
2017-11-23T06:01:42.685Z,999.81
2017-11-23T06:02:51.804Z,999.8
2017-11-23T06:04:01.352Z,999.8
2017-11-23T06:05:10.183Z,999.76
2017-11-23T06:06:19.010Z,999.79
2017-11-23T06:07:27.840Z,999.83
2017-11-23T06:08:36.670Z,999.78
2017-11-23T06:09:45.651Z,999.82
2017-11-23T06:10:54.480Z,999.81
2017-11-23T06:12:03.594Z,999.84
2017-11-23T06:13:12.703Z,999.83
2017-11-23T06:14:21.535Z,999.8
2017-11-23T06:15:30.416Z,999.77
2017-11-23T06:16:39.247Z,999.71
2017-11-23T06:17:48.361Z,999.71
2017-11-23T06:18:57.193Z,999.69
2017-11-23T06:20:06.122Z,999.66
2017-11-23T06:21:15.051Z,999.57
2017-11-23T06:22:24.164Z,999.6
2017-11-23T06:23:32.995Z,999.62
2017-11-23T06:24:42.107Z,999.56
2017-11-23T06:25:50.940Z,999.64
2017-11-23T06:26:59.771Z,999.73
2017-11-23T06:28:08.606Z,999.73
2017-11-23T06:29:17.443Z,999.71
2017-11-23T06:30:26.273Z,999.7
2017-11-23T06:31:35.103Z,999.69
2017-11-23T06:32:43.944Z,999.7
2017-11-23T06:33:52.764Z,999.77
2017-11-23T06:35:01.881Z,999.71
2017-11-23T06:36:10.711Z,999.69
2017-11-23T06:37:19.540Z,999.73
2017-11-23T06:38:28.420Z,999.77
2017-11-23T06:39:37.247Z,999.69
2017-11-23T06:40:46.076Z,999.7
2017-11-23T06:41:54.906Z,999.66
2017-11-23T06:43:03.738Z,999.71
2017-11-23T06:44:12.953Z,999.62
2017-11-23T06:45:21.785Z,999.63
2017-11-23T06:46:30.615Z,999.59
2017-11-23T06:47:39.747Z,999.59
2017-11-23T06:48:48.561Z,999.58
2017-11-23T06:49:57.642Z,999.5
2017-11-23T06:51:06.473Z,999.57
2017-11-23T06:52:15.305Z,999.55
2017-11-23T06:53:24.134Z,999.56
2017-11-23T06:54:32.963Z,999.59
2017-11-23T06:55:41.840Z,999.51
2017-11-23T06:56:51.232Z,999.51
2017-11-23T06:58:00.063Z,999.5
2017-11-23T06:59:09.453Z,999.51
2017-11-23T07:00:18.283Z,999.49
2017-11-23T07:01:27.262Z,999.53
2017-11-23T07:02:36.093Z,999.46
2017-11-23T07:03:44.920Z,999.39
2017-11-23T07:04:53.752Z,999.36
2017-11-23T07:06:02.577Z,999.36
2017-11-23T07:07:11.659Z,999.43
2017-11-23T07:08:20.486Z,999.34
2017-11-23T07:09:29.316Z,999.16
2017-11-23T07:10:38.149Z,999.17
2017-11-23T07:11:46.980Z,999.09
2017-11-23T07:12:55.810Z,999.12
2017-11-23T07:14:04.641Z,999.17
2017-11-23T07:15:13.480Z,999.18
2017-11-23T07:16:22.580Z,999.19
2017-11-23T07:17:31.409Z,999.18
2017-11-23T07:18:40.388Z,999.13
2017-11-23T07:19:49.220Z,999.01
2017-11-23T07:20:58.052Z,998.91
2017-11-23T07:22:06.886Z,998.85
2017-11-23T07:23:15.716Z,998.89
2017-11-23T07:24:24.844Z,999.02
2017-11-23T07:25:33.677Z,999
2017-11-23T07:26:42.517Z,999.06
2017-11-23T07:27:51.343Z,999.09
2017-11-23T07:29:00.170Z,999.21
2017-11-23T07:30:09.150Z,999.25
2017-11-23T07:31:17.979Z,999.28
2017-11-23T07:32:27.096Z,999.28
2017-11-23T07:33:35.924Z,999.22
2017-11-23T07:34:44.753Z,999.24
2017-11-23T07:35:53.783Z,999.3
2017-11-23T07:37:02.615Z,999.44
2017-11-23T07:38:11.443Z,999.53
2017-11-23T07:39:20.274Z,999.5
2017-11-23T07:40:29.109Z,999.44
2017-11-23T07:41:37.987Z,999.43
2017-11-23T07:42:46.816Z,999.44
2017-11-23T07:43:55.652Z,999.36
2017-11-23T07:45:04.476Z,999.28
2017-11-23T07:46:13.306Z,999.28
2017-11-23T07:47:22.285Z,999.29
2017-11-23T07:48:31.116Z,999.28
2017-11-23T07:49:39.948Z,999.24
2017-11-23T07:50:48.778Z,999.22
2017-11-23T07:51:57.611Z,999.24
2017-11-23T07:53:06.546Z,999.27
2017-11-23T07:54:15.372Z,999.24
2017-11-23T07:55:24.203Z,999.23
2017-11-23T07:56:33.034Z,999.17
2017-11-23T07:57:41.864Z,999.13
2017-11-23T07:58:50.794Z,999.14
2017-11-23T07:59:59.626Z,999.14
2017-11-23T08:01:08.457Z,999.2
2017-11-23T08:02:17.286Z,999.17
2017-11-23T08:03:26.118Z,998.98
2017-11-23T08:04:34.953Z,998.93
2017-11-23T08:05:43.782Z,999.03
2017-11-23T08:06:52.617Z,999.05
2017-11-23T08:08:01.443Z,999.1
2017-11-23T08:09:10.279Z,999.08
2017-11-23T08:10:19.154Z,999.05
2017-11-23T08:11:27.983Z,998.98
2017-11-23T08:12:36.818Z,998.97
2017-11-23T08:13:45.649Z,998.89
2017-11-23T08:14:54.482Z,998.84
2017-11-23T08:16:03.465Z,998.74
2017-11-23T08:17:12.292Z,998.82
2017-11-23T08:18:21.123Z,998.82
2017-11-23T08:19:29.956Z,998.81
2017-11-23T08:20:38.787Z,998.76
2017-11-23T08:21:47.619Z,998.7
2017-11-23T08:22:56.450Z,998.67
2017-11-23T08:24:05.559Z,998.72
2017-11-23T08:25:14.392Z,998.65
2017-11-23T08:26:23.222Z,998.71
2017-11-23T08:27:32.204Z,998.64
2017-11-23T08:28:41.035Z,998.7
2017-11-23T08:29:49.865Z,998.73
2017-11-23T08:30:58.693Z,998.7
2017-11-23T08:32:07.800Z,998.62
2017-11-23T08:33:16.682Z,998.6
2017-11-23T08:34:25.512Z,998.66
2017-11-23T08:35:34.342Z,998.66
2017-11-23T08:36:43.176Z,998.72
2017-11-23T08:37:52.006Z,998.69
2017-11-23T08:39:00.839Z,998.65
2017-11-23T08:40:09.672Z,998.63
2017-11-23T08:41:18.504Z,998.6
2017-11-23T08:42:27.334Z,998.58
2017-11-23T08:43:36.447Z,998.7
2017-11-23T08:44:45.332Z,998.72
2017-11-23T08:45:54.163Z,998.69
2017-11-23T08:47:03.279Z,998.62
2017-11-23T08:48:12.391Z,998.67
2017-11-23T08:49:21.225Z,998.68
2017-11-23T08:50:30.206Z,998.68
2017-11-23T08:51:39.037Z,998.65
2017-11-23T08:52:47.868Z,998.52
2017-11-23T08:53:56.697Z,998.68
2017-11-23T08:55:05.524Z,998.7
2017-11-23T08:56:14.454Z,998.67
2017-11-23T08:57:23.283Z,998.73
2017-11-23T08:58:32.112Z,998.63
2017-11-23T08:59:40.945Z,998.63
2017-11-23T09:00:49.775Z,998.65
2017-11-23T09:01:58.707Z,998.6
2017-11-23T09:03:07.544Z,998.66
2017-11-23T09:04:16.376Z,998.66
2017-11-23T09:05:25.204Z,998.66
2017-11-23T09:06:34.035Z,998.66
2017-11-23T09:07:43.044Z,998.68
2017-11-23T09:08:51.849Z,998.72
2017-11-23T09:10:00.682Z,998.72
2017-11-23T09:11:09.512Z,998.71
2017-11-23T09:12:18.343Z,998.69
2017-11-23T09:13:27.475Z,998.67
2017-11-23T09:14:36.307Z,998.67
2017-11-23T09:15:45.137Z,998.72
2017-11-23T09:16:53.969Z,998.67
2017-11-23T09:18:02.801Z,998.76
2017-11-23T09:19:11.911Z,998.71
2017-11-23T09:20:20.743Z,998.75
2017-11-23T09:21:29.574Z,998.71
2017-11-23T09:22:38.694Z,998.72
2017-11-23T09:23:47.526Z,998.7
2017-11-23T09:24:56.638Z,998.58
2017-11-23T09:26:05.470Z,998.67
2017-11-23T09:27:14.302Z,998.67
2017-11-23T09:28:23.136Z,998.67
2017-11-23T09:29:31.968Z,998.59
2017-11-23T09:30:40.899Z,998.54
2017-11-23T09:31:49.730Z,998.47
2017-11-23T09:32:58.561Z,998.51
2017-11-23T09:34:07.391Z,998.48
2017-11-23T09:35:16.224Z,998.44
2017-11-23T09:36:25.354Z,998.38
2017-11-23T09:37:34.192Z,998.46
2017-11-23T09:38:43.019Z,998.47
2017-11-23T09:39:52.134Z,998.43
2017-11-23T09:41:00.967Z,998.5
2017-11-23T09:42:10.078Z,998.57
2017-11-23T09:43:18.909Z,998.39
2017-11-23T09:44:27.743Z,998.43
2017-11-23T09:45:36.571Z,998.48
2017-11-23T09:46:45.405Z,998.45
2017-11-23T09:47:54.237Z,998.39
2017-11-23T09:49:03.067Z,998.58
2017-11-23T09:50:11.898Z,998.6
2017-11-23T09:51:20.728Z,998.42
2017-11-23T09:52:29.561Z,998.44
2017-11-23T09:53:38.494Z,998.49
2017-11-23T09:54:47.336Z,998.41
2017-11-23T09:55:56.161Z,998.43
2017-11-23T09:57:04.995Z,998.43
2017-11-23T09:58:14.108Z,998.42
2017-11-23T09:59:23.241Z,998.41
2017-11-23T10:00:32.073Z,998.44
2017-11-23T10:01:40.904Z,998.44
2017-11-23T10:02:49.736Z,998.44
2017-11-23T10:03:59.139Z,998.56
2017-11-23T10:05:07.985Z,998.42
2017-11-23T10:06:16.815Z,998.44
2017-11-23T10:07:25.653Z,998.42
2017-11-23T10:08:34.482Z,998.44
2017-11-23T10:09:43.316Z,998.43
2017-11-23T10:10:52.148Z,998.37
2017-11-23T10:12:00.982Z,998.47
2017-11-23T10:13:09.815Z,998.48
2017-11-23T10:14:19.229Z,998.49
2017-11-23T10:15:28.055Z,998.49
2017-11-23T10:16:36.935Z,998.54
2017-11-23T10:17:46.049Z,998.49
2017-11-23T10:18:54.880Z,998.41
2017-11-23T10:20:03.713Z,998.43
2017-11-23T10:21:12.543Z,998.37
2017-11-23T10:22:21.477Z,998.38
2017-11-23T10:23:30.307Z,998.47
2017-11-23T10:24:39.437Z,998.51
2017-11-23T10:25:48.268Z,998.41
2017-11-23T10:26:57.106Z,998.5
2017-11-23T10:28:06.094Z,998.49
2017-11-23T10:29:14.919Z,998.56
2017-11-23T10:30:23.750Z,998.53
2017-11-23T10:31:32.584Z,998.47
2017-11-23T10:32:41.418Z,998.42
2017-11-23T10:33:50.583Z,998.32
2017-11-23T10:34:59.418Z,998.28
2017-11-23T10:36:08.252Z,998.32
2017-11-23T10:37:17.086Z,998.43
2017-11-23T10:38:25.924Z,998.4
2017-11-23T10:39:34.859Z,998.35
2017-11-23T10:40:43.695Z,998.35
2017-11-23T10:41:52.527Z,998.43
2017-11-23T10:43:01.358Z,998.38
2017-11-23T10:44:10.475Z,998.36
2017-11-23T10:45:19.741Z,998.4
2017-11-23T10:46:28.571Z,998.51
2017-11-23T10:47:37.689Z,998.3
2017-11-23T10:48:46.525Z,998.35
2017-11-23T10:49:55.355Z,998.39
2017-11-23T10:51:04.289Z,998.42
2017-11-23T10:52:13.122Z,998.38
2017-11-23T10:53:22.248Z,998.41
2017-11-23T10:54:31.077Z,998.37
2017-11-23T10:55:39.908Z,998.46
2017-11-23T10:56:48.739Z,998.47
2017-11-23T10:57:57.572Z,998.35
2017-11-23T10:59:06.406Z,998.36
2017-11-23T11:00:15.241Z,998.38
2017-11-23T11:01:24.074Z,998.4
2017-11-23T11:02:33.058Z,998.38
2017-11-23T11:03:41.892Z,998.38
2017-11-23T11:04:50.725Z,998.38
2017-11-23T11:05:59.559Z,998.42
2017-11-23T11:07:08.393Z,998.49
2017-11-23T11:08:17.378Z,998.43
2017-11-23T11:09:26.213Z,998.43
2017-11-23T11:10:35.329Z,998.55
2017-11-23T11:11:44.164Z,998.55
2017-11-23T11:12:52.999Z,998.54
2017-11-23T11:14:02.263Z,998.61
2017-11-23T11:15:11.096Z,998.61
2017-11-23T11:16:19.931Z,998.7
2017-11-23T11:17:28.763Z,998.58
2017-11-23T11:18:37.596Z,998.7
2017-11-23T11:19:46.426Z,998.59
2017-11-23T11:20:55.262Z,998.74
2017-11-23T11:22:04.096Z,998.69
2017-11-23T11:23:12.929Z,998.74
2017-11-23T11:24:21.763Z,998.81
2017-11-23T11:25:30.647Z,998.61
2017-11-23T11:26:39.481Z,998.64
2017-11-23T11:27:48.593Z,998.63
2017-11-23T11:28:57.428Z,998.77
2017-11-23T11:30:06.260Z,998.76
2017-11-23T11:31:15.695Z,998.75
2017-11-23T11:32:24.527Z,998.83
2017-11-23T11:33:33.361Z,998.78
2017-11-23T11:34:42.194Z,998.79
2017-11-23T11:35:51.304Z,998.77
2017-11-23T11:37:00.134Z,998.89
2017-11-23T11:38:09.306Z,998.77
2017-11-23T11:39:18.423Z,998.92
2017-11-23T11:40:27.257Z,998.89
2017-11-23T11:41:36.091Z,998.87
2017-11-23T11:42:44.975Z,998.87
2017-11-23T11:43:53.841Z,998.97
2017-11-23T11:45:02.644Z,998.79
2017-11-23T11:46:11.479Z,998.95
2017-11-23T11:47:20.311Z,998.99
2017-11-23T11:48:29.194Z,999.02
2017-11-23T11:49:38.028Z,999.07
2017-11-23T11:50:46.863Z,999.15
2017-11-23T11:51:55.696Z,999.1
2017-11-23T11:53:04.813Z,999.18
2017-11-23T11:54:14.130Z,999.25
2017-11-23T11:55:22.971Z,999.04
2017-11-23T11:56:31.800Z,999.08
2017-11-23T11:57:40.632Z,999.19
2017-11-23T11:58:49.464Z,999.24
2017-11-23T11:59:58.447Z,999.25
2017-11-23T12:01:07.558Z,999.23
2017-11-23T12:02:16.393Z,999.39
2017-11-23T12:03:25.851Z,999.39
2017-11-23T12:04:35.692Z,999.42
2017-11-23T12:05:44.585Z,999.5
2017-11-23T12:06:53.463Z,999.53
2017-11-23T12:08:03.075Z,999.52
2017-11-23T12:09:12.006Z,999.55
2017-11-23T12:10:22.333Z,999.75
2017-11-23T12:11:31.165Z,999.63
2017-11-23T12:12:40.344Z,999.73
2017-11-23T12:13:50.032Z,999.82
2017-11-23T12:14:58.886Z,999.69
2017-11-23T12:16:07.747Z,999.81
2017-11-23T12:17:16.662Z,999.81
2017-11-23T12:18:26.144Z,999.92
2017-11-23T12:19:35.280Z,999.79
2017-11-23T12:20:44.140Z,999.73
2017-11-23T12:21:53.388Z,999.88
2017-11-23T12:23:02.544Z,999.86
2017-11-23T12:24:11.484Z,999.83
2017-11-23T12:25:20.652Z,999.91
2017-11-23T12:26:29.892Z,999.87
2017-11-23T12:27:39.203Z,999.95
2017-11-23T12:28:48.312Z,1000.02
2017-11-23T12:29:57.547Z,999.95
2017-11-23T12:31:06.726Z,999.97
2017-11-23T12:32:15.589Z,999.95
2017-11-23T12:33:24.747Z,999.92
2017-11-23T12:34:33.605Z,999.95
2017-11-23T12:35:42.435Z,1000.23
2017-11-23T12:36:51.526Z,999.94
2017-11-23T12:38:00.393Z,999.87
2017-11-23T12:39:09.461Z,1000.01
2017-11-23T12:40:18.327Z,1000.04
2017-11-23T12:41:27.381Z,999.91
2017-11-23T12:42:36.408Z,1000.07
2017-11-23T12:43:45.253Z,999.98
2017-11-23T12:44:54.093Z,1000.02
2017-11-23T12:46:02.926Z,1000.21
2017-11-23T12:47:11.762Z,1000.14
2017-11-23T12:48:21.032Z,1000.1
2017-11-23T12:49:29.859Z,1000.18
2017-11-23T12:50:38.695Z,1000.18
2017-11-23T12:51:47.530Z,1000.09
2017-11-23T12:52:56.367Z,1000.1
2017-11-23T12:54:05.302Z,1000.04
2017-11-23T12:55:14.131Z,1000.06
2017-11-23T12:56:22.968Z,1000.05
2017-11-23T12:57:31.799Z,1000.14
2017-11-23T12:58:40.654Z,1000.14
2017-11-23T12:59:49.614Z,1000.25
2017-11-23T13:00:58.447Z,1000.18
2017-11-23T13:02:07.284Z,1000.32
2017-11-23T13:03:16.120Z,1000.18
2017-11-23T13:04:25.232Z,1000.16
2017-11-23T13:05:34.065Z,1000.39
2017-11-23T13:06:42.901Z,1000.53
2017-11-23T13:07:51.733Z,1000.3
2017-11-23T13:09:00.568Z,1000.48
2017-11-23T13:10:09.401Z,1000.34
2017-11-23T13:11:18.285Z,1000.37
2017-11-23T13:12:27.121Z,1000.39
2017-11-23T13:13:36.232Z,1000.35
2017-11-23T13:14:45.067Z,1000.37
2017-11-23T13:15:53.902Z,1000.45
2017-11-23T13:17:03.138Z,1000.36
2017-11-23T13:18:12.074Z,1000.42
2017-11-23T13:19:20.929Z,1000.43
2017-11-23T13:20:29.768Z,1000.43
2017-11-23T13:21:38.600Z,1000.48
2017-11-23T13:22:47.586Z,1000.42
2017-11-23T13:23:56.416Z,1000.51
2017-11-23T13:25:05.253Z,1000.52
2017-11-23T13:26:14.089Z,1000.38
2017-11-23T13:27:22.922Z,1000.58
2017-11-23T13:28:31.810Z,1000.61
2017-11-23T13:29:40.649Z,1000.55
2017-11-23T13:30:49.494Z,1000.51
2017-11-23T13:31:58.616Z,1000.58
2017-11-23T13:33:07.727Z,1000.48
2017-11-23T13:34:16.718Z,1000.54
2017-11-23T13:35:25.547Z,1000.53
2017-11-23T13:36:34.396Z,1000.51
2017-11-23T13:37:43.233Z,1000.5
2017-11-23T13:38:52.065Z,1000.56
2017-11-23T13:40:00.897Z,1000.56
2017-11-23T13:41:09.831Z,1000.66
2017-11-23T13:42:18.668Z,1000.63
2017-11-23T13:43:27.500Z,1000.64
2017-11-23T13:44:36.335Z,1000.65
2017-11-23T13:45:45.445Z,1000.6
2017-11-23T13:46:54.282Z,1000.45
2017-11-23T13:48:03.115Z,1000.62
2017-11-23T13:49:11.947Z,1000.64
2017-11-23T13:50:20.782Z,1000.62
2017-11-23T13:51:29.764Z,1000.66
2017-11-23T13:52:38.596Z,1000.61
2017-11-23T13:53:47.716Z,1000.64
2017-11-23T13:54:56.551Z,1000.66
2017-11-23T13:56:05.385Z,1000.61
2017-11-23T13:57:14.372Z,1000.67
2017-11-23T13:58:23.480Z,1000.64
2017-11-23T13:59:32.605Z,1000.62
2017-11-23T14:00:41.437Z,1000.63
2017-11-23T14:01:50.269Z,1000.61
2017-11-23T14:02:59.102Z,1000.61
2017-11-23T14:04:08.229Z,1000.67
2017-11-23T14:05:17.059Z,1000.67
2017-11-23T14:06:25.896Z,1000.66
2017-11-23T14:07:34.727Z,1000.68
2017-11-23T14:08:43.609Z,1000.71
2017-11-23T14:09:52.442Z,1000.65
2017-11-23T14:11:01.274Z,1000.67
2017-11-23T14:12:10.208Z,1000.66
2017-11-23T14:13:19.040Z,1000.7
2017-11-23T14:14:28.023Z,1000.68
2017-11-23T14:15:37.144Z,1000.78
2017-11-23T14:16:45.985Z,1000.77